Scroll down
FLIGHT INFORMATION
SAS Scandinavian Airlines

SAS4788

At Arrival Gate

BIKF
 ENGM
DATE: 2020-10-26
GATE:  -
GATE DEPARTURE: 16:38
TAKEOFF: 16:57
DATE: 2020-10-26
GATE: G6
LANDING: 19:17
GATE ARRIVAL: 19:27
FLIGHT DATA
Crew: 
Speed: 
463 kts
Altitude: 
37,233 ft
Stage Length: 
961.2 nm
Block Time: 
2.8 hrs
Flight Time: 
2.3 hrs
Fuel Used: 
14,131 lb
Cleared Route: BIKF KF272 KF221 KF222 KF223 KF224 OSKUM 6314N 6308N IPTON SOBDU ADOPI EXUDA GM428 GM429 GM430 GM431 GM452 BAVAD RW19R
TRACK DATA
50,000 ft 1,000 kts
AIRCRAFT INFO AND CUMULATIVE STATS
Aircraft Type: 
B738BW
Registration: 
SELCAL: 
MSN/LN: 
39397 / 4003
Total Flights: 
8
Total Block Time: 
16.5 hrs
Total Flight Time: 
14.2 hrs
Total Fuel Time: 
86,906 lb
DATALINK LOG | Newest first | Current as of: 2020-12-03 01:02:57
LABEL SEQUENCE CONTENT Dn/Up
QD283119:27 9.8▼ Dn
QC192219:17▼ Dn
GA5165GATE G6▲ Up
GR5155ENGM 19:18 HI-VAL NO DIPL/VIP NO▼ Dn
5U0106TAF ENGM 2612/2712 16008KT 9999 FEW012 BKN020 TEMPO 2612/2620 BKN008 FEW020CB TEMPO 2620/2712 3000 SHRA BR BKN006 FEW020CB▲ Up
5S0106ENGM▼ Dn
2U0105ENGM 261650Z 12004KT 080V150 7000 RA FEW004 SCT007 BKN027 08/07 Q0998 TEMPO 4000 SHRA BKN007▲ Up
2S0105ENGM▼ Dn
UM204157CLEARED TO FL 370▲ Up
DM64147REQUEST FL 370 DUE TO A/C PERF▼ Dn
UM204156CLEARED TO FL 370▲ Up
DM64146REQUEST FL 370 DUE TO A/C PERF▼ Dn
5R1823OSKUM 17:09z FL195 6314N 17:31z 6308N 300 9.4 -24 284/24 RW19R 19:17z▼ Dn
QB590516:57▼ Dn
QA404716:38 24▼ Dn
2U2633BIKF 261500Z 09010KT 9999 FEW018 BKN028 BKN068 06/04 Q0994▲ Up
2S2633BIKF▼ Dn
A31522NO MATCHING FLIGHT DATA AVAILABLE FROM ANSP▲ Up
B31522BIKF ENGM SAS4788 SAS A ▼ Dn
A31228NO MATCHING FLIGHT DATA AVAILABLE FROM ANSP▲ Up
B31219BIKF ENGM SAS4788 SAS A ▼ Dn
Q01017[LINK ACK]▲ Up
Q01017[LINK TEST]▼ Dn


AIRCRAFT HISTORY
FLIGHT DATE FLIGHT NO. ORIGIN DESTINATION CLEARED ROUTE BLOCK TIME FLIGHT TIME FUEL USED PILOT
2020-11-15SAS455EHAM EFHK EHAM ANDIK KEKIX GRONY EEL DOBAK EMPIT DOTOB AVESA REVLA WSN STADE ESTAD HAM LUGEG TOSPA AMICH PIBUL MEGAR GESKA KOSMO MOSAT MALIV TIDVU EKRAL KOTAM LAGIS KAL OLANU ALAMI EVADI RUMEP NIPIB DIVAM EFHK2.6 hrs2.2 hrs13,038 lbZsolt Szivak
2020-11-09SAS827ENGM EHAM EHAM EH624 EHAM2.3 hrs1.6 hrs11,247 lbBig Swede
2020-10-26SAS4788BIKF ENGM BIKF KF272 KF221 KF222 KF223 KF224 OSKUM 6314N 6308N IPTON SOBDU ADOPI EXUDA GM428 GM429 GM430 GM431 GM452 BAVAD RW19R2.8 hrs2.3 hrs14,131 lbBig Swede
2020-07-22SAS595EKCH BIKF EKCH MIKSI KOVIK BIVKI ZOL VALDI CONNY 6310N NASBU BIKF3.4 hrs3 hrs16,855 lbBig Swede
2020-06-28ENBR EKCH 1.4 hrs1.2 hrs7,290 lbEmanuel Hagen
2020-06-28EKCH ENBR EKCH RUBAT CH384 SORGA MIKSI ASLID AAL LAGUM AMSEV TUKMU BADAB OKTOS DIBMA LEGTA LUSAP BR624 LUTIV BR623 BR622 BR621 BR620 GILVA RW171.2 hrs1 hrs6,143 lbEmanuel Hagen
2019-11-07SAS1475ENGM EKCH 1.2 hrs0.9 hrs6,606 lbBig Swede
2019-11-07SAS4425ENTC ENGM 2.1 hrs1.9 hrs11,597 lbBig Swede